Time;durP1;ratioP1;P1;durP2;ratioP2;P2;SDS_P1;SDS_P2;PMS_P1;PMS_P2;Temp;Humidity;BMP_temperature;BMP_pressure;BME280_temperature;BME280_humidity;BME280_pressure;Samples;Min_cycle;Max_cycle;Signal;HPM_P1;HPM_P2
2023/05/31 00:01:02;;;;;;;;;;;;;;;22.20;65.85;99680.00;5094457;28;19919;-42
2023/05/31 00:03:27;;;;;;;;;;;;;;;22.19;65.83;99683.78;5094324;28;19916;-41
2023/05/31 00:05:53;;;;;;;;;;;;;;;22.13;66.28;99682.22;5094654;28;19908;-42
2023/05/31 00:08:18;;;;;;;;;;;;;;;21.96;66.77;99688.00;5094220;28;19998;-41
2023/05/31 00:10:44;;;;;;;;;;;;;;;21.98;66.93;99685.81;5094143;28;19911;-42
2023/05/31 00:13:10;;;;;;;;;;;;;;;21.81;67.16;99680.78;5094003;28;19912;-43
2023/05/31 00:15:35;;;;;;;;;;;;;;;21.68;67.40;99675.97;5094130;28;19940;-43
2023/05/31 00:18:00;;;;;;;;;;;;;;;21.90;66.90;99686.44;5094042;28;20360;-43
2023/05/31 00:20:26;;;;;;;;;;;;;;;21.95;66.70;99683.69;5093929;28;19981;-43
2023/05/31 00:22:51;;;;;;;;;;;;;;;21.94;66.32;99687.47;5094043;28;19912;-43
2023/05/31 00:25:16;;;;;;;;;;;;;;;21.44;68.12;99686.66;5093844;28;19916;-42
2023/05/31 00:27:41;;;;;;;;;;;;;;;21.37;68.47;99689.63;5093780;28;19969;-43
2023/05/31 00:30:07;;;;;;;;;;;;;;;21.37;68.48;99689.63;5093708;28;19985;-43
2023/05/31 00:32:32;;;;;;;;;;;;;;;21.48;68.27;99685.81;5093782;28;19919;-42
2023/05/31 00:34:58;;;;;;;;;;;;;;;21.63;67.61;99697.69;5093739;28;19916;-42
2023/05/31 00:37:23;;;;;;;;;;;;;;;21.57;67.30;99694.19;5093608;28;20273;-43
2023/05/31 00:39:48;;;;;;;;;;;;;;;21.66;67.32;99691.69;5093677;28;19941;-43
2023/05/31 00:42:14;;;;;;;;;;;;;;;21.57;67.33;99698.75;5093616;28;19912;-43
2023/05/31 00:44:39;;;;;;;;;;;;;;;21.65;67.24;99700.91;5093854;28;20045;-42
2023/05/31 00:47:05;;;;;;;;;;;;;;;21.69;66.96;99699.25;5093443;28;20348;-43
2023/05/31 00:49:30;;;;;;;;;;;;;;;21.81;66.14;99697.03;5093321;28;19912;-41
2023/05/31 00:51:56;;;;;;;;;;;;;;;21.75;66.61;99694.63;5093177;28;19912;-41
2023/05/31 00:54:22;;;;;;;;;;;;;;;21.59;66.86;99697.41;5093781;28;19923;-41
2023/05/31 00:56:47;;;;;;;;;;;;;;;21.58;67.35;99698.50;5091968;28;19912;-40
2023/05/31 00:59:15;;;;;;;;;;;;;;;21.59;67.34;99697.41;5093084;28;19973;-42
2023/05/31 01:01:40;;;;;;;;;;;;;;;21.56;67.37;99702.56;5093038;28;19919;-41
2023/05/31 01:04:07;;;;;;;;;;;;;;;21.58;67.49;99703.91;5093725;28;19916;-42
2023/05/31 01:06:34;;;;;;;;;;;;;;;21.48;67.74;99699.34;5092998;28;19999;-42
2023/05/31 01:09:07;;;;;;;;;;;;;;;21.04;68.93;99701.91;5093346;28;19919;-42
2023/05/31 01:11:32;;;;;;;;;;;;;;;21.12;69.07;99700.53;5092936;28;19912;-42
2023/05/31 01:14:07;;;;;;;;;;;;;;;21.31;68.57;99698.03;5092979;28;19923;-42
2023/05/31 01:16:41;;;;;;;;;;;;;;;21.44;68.07;99713.72;5093092;28;19965;-42
2023/05/31 01:19:12;;;;;;;;;;;;;;;21.43;68.24;99707.44;5092711;28;19916;-42
2023/05/31 01:21:51;;;;;;;;;;;;;;;21.37;68.30;99703.16;5092609;28;19912;-42
2023/05/31 01:24:31;;;;;;;;;;;;;;;21.44;67.65;99705.59;5093046;28;19934;-42
2023/05/31 01:26:59;;;;;;;;;;;;;;;21.51;67.77;99710.72;5092970;28;19912;-42
2023/05/31 01:29:26;;;;;;;;;;;;;;;21.58;67.19;99708.53;5092656;28;19920;-41
2023/05/31 01:31:52;;;;;;;;;;;;;;;21.61;67.19;99707.94;5092655;28;19916;-43
2023/05/31 01:34:18;;;;;;;;;;;;;;;21.52;67.80;99707.72;5093216;28;20003;-42
2023/05/31 01:36:43;;;;;;;;;;;;;;;21.45;67.89;99705.31;5092501;28;19987;-42
2023/05/31 01:39:09;;;;;;;;;;;;;;;21.56;67.71;99699.88;5091990;28;19939;-42
2023/05/31 01:41:39;;;;;;;;;;;;;;;21.54;67.33;99700.13;5092267;28;19977;-42
2023/05/31 01:44:05;;;;;;;;;;;;;;;21.58;67.44;99700.41;5092312;28;19989;-42
2023/05/31 01:46:31;;;;;;;;;;;;;;;21.52;67.96;99704.22;5092264;28;19916;-42
2023/05/31 01:48:56;;;;;;;;;;;;;;;21.55;67.59;99709.91;5092182;28;20333;-42
2023/05/31 01:51:22;;;;;;;;;;;;;;;21.55;67.51;99709.06;5092111;28;20360;-42
2023/05/31 01:53:47;;;;;;;;;;;;;;;21.39;68.03;99706.38;5091940;28;20018;-42
2023/05/31 01:56:12;;;;;;;;;;;;;;;21.44;67.84;99709.13;5092148;28;19912;-42
2023/05/31 01:58:41;;;;;;;;;;;;;;;21.37;67.80;99713.97;5091695;28;20100;-42
2023/05/31 02:01:08;;;;;;;;;;;;;;;21.31;67.41;99706.97;5092361;28;20292;-42
2023/05/31 02:03:33;;;;;;;;;;;;;;;21.25;68.03;99730.53;5091594;28;19912;-44
2023/05/31 02:06:00;;;;;;;;;;;;;;;21.21;68.20;99717.78;5084107;28;20023;-43
2023/05/31 02:08:25;;;;;;;;;;;;;;;21.24;67.95;99725.38;5071711;28;19920;-41
2023/05/31 02:10:51;;;;;;;;;;;;;;;21.26;67.72;99717.78;5089739;28;19943;-43
2023/05/31 02:13:17;;;;;;;;;;;;;;;21.12;68.03;99716.75;5092101;28;19962;-41
2023/05/31 02:15:43;;;;;;;;;;;;;;;21.20;68.08;99713.47;5091839;28;20383;-42
2023/05/31 02:18:08;;;;;;;;;;;;;;;21.14;67.99;99717.28;5091503;28;19920;-41
2023/05/31 02:20:33;;;;;;;;;;;;;;;20.84;69.49;99717.06;5078801;28;20015;-42
2023/05/31 02:22:59;;;;;;;;;;;;;;;20.89;69.61;99716.25;5071728;28;19916;-43
2023/05/31 02:25:24;;;;;;;;;;;;;;;20.92;69.61;99717.59;5078946;28;19947;-42
2023/05/31 02:27:49;;;;;;;;;;;;;;;21.19;70.09;99726.22;5091554;28;19954;-43
2023/05/31 02:30:15;;;;;;;;;;;;;;;21.42;70.95;99715.88;5091277;28;19925;-42
2023/05/31 02:32:41;;;;;;;;;;;;;;;21.70;69.74;99721.72;5091612;28;19923;-42
2023/05/31 02:35:09;;;;;;;;;;;;;;;21.94;68.61;99722.69;5091556;28;19912;-42
2023/05/31 02:37:35;;;;;;;;;;;;;;;21.98;67.24;99722.94;5091498;28;19923;-42
2023/05/31 02:40:01;;;;;;;;;;;;;;;22.14;66.75;99719.06;5091323;28;19913;-42
2023/05/31 02:42:26;;;;;;;;;;;;;;;22.24;66.65;99719.00;5091035;28;19919;-42
2023/05/31 02:44:52;;;;;;;;;;;;;;;22.36;65.94;99726.00;5091203;28;20015;-42
2023/05/31 02:47:17;;;;;;;;;;;;;;;22.48;65.09;99731.06;5086041;28;19965;-43
2023/05/31 02:49:42;;;;;;;;;;;;;;;22.05;65.89;99731.59;5091108;28;19912;-42
2023/05/31 02:52:08;;;;;;;;;;;;;;;21.92;66.41;99737.63;5071857;28;19913;-42
2023/05/31 02:54:33;;;;;;;;;;;;;;;21.95;67.42;99728.91;5087832;28;19916;-42
2023/05/31 02:56:59;;;;;;;;;;;;;;;22.15;66.86;99728.00;5090244;28;19943;-42
2023/05/31 02:59:24;;;;;;;;;;;;;;;22.29;66.04;99736.34;5091052;28;19920;-40
2023/05/31 03:01:50;;;;;;;;;;;;;;;22.18;65.13;99728.25;5090935;28;20006;-40
2023/05/31 03:04:15;;;;;;;;;;;;;;;22.20;64.82;99733.38;5089505;28;19974;-35
2023/05/31 03:06:42;;;;;;;;;;;;;;;21.81;65.87;99732.22;5090291;28;19944;-35
2023/05/31 03:09:07;;;;;;;;;;;;;;;21.69;66.13;99736.38;5090132;28;20520;-36
2023/05/31 03:11:32;;;;;;;;;;;;;;;21.77;66.24;99733.09;5090452;28;19929;-36
2023/05/31 03:13:58;;;;;;;;;;;;;;;21.53;67.97;99732.91;5085445;28;19928;-36
2023/05/31 03:16:24;;;;;;;;;;;;;;;21.55;66.81;99734.25;5088352;28;20335;-35
2023/05/31 03:18:50;;;;;;;;;;;;;;;20.82;69.10;99742.75;5099007;28;19920;-35
2023/05/31 03:21:15;;;;;;;;;;;;;;;20.87;68.88;99731.94;5090271;28;20233;-35
2023/05/31 03:23:41;;;;;;;;;;;;;;;20.73;69.28;99733.56;5089634;28;19912;-36
2023/05/31 03:26:06;;;;;;;;;;;;;;;20.99;68.29;99737.06;5090097;28;19951;-34
2023/05/31 03:28:31;;;;;;;;;;;;;;;20.90;68.45;99739.50;5089867;28;19916;-37
2023/05/31 03:30:56;;;;;;;;;;;;;;;21.18;67.83;99740.00;5088829;28;19932;-36
2023/05/31 03:33:22;;;;;;;;;;;;;;;21.38;67.00;99741.84;5088901;28;20023;-36
2023/05/31 03:35:47;;;;;;;;;;;;;;;21.20;67.21;99748.66;5088150;28;20300;-36
2023/05/31 03:38:13;;;;;;;;;;;;;;;21.28;67.38;99748.94;5088209;28;20009;-35
2023/05/31 03:40:38;;;;;;;;;;;;;;;21.56;66.54;99741.28;5087962;28;20388;-35
2023/05/31 03:43:03;;;;;;;;;;;;;;;21.73;65.73;99745.56;5088422;28;19955;-35
2023/05/31 03:45:29;;;;;;;;;;;;;;;21.97;65.29;99751.13;5088828;28;19916;-35
2023/05/31 03:47:54;;;;;;;;;;;;;;;21.73;65.62;99745.56;5088937;28;19916;-34
2023/05/31 03:50:19;;;;;;;;;;;;;;;21.99;65.13;99751.66;5089601;28;20010;-35
2023/05/31 03:52:45;;;;;;;;;;;;;;;22.06;64.29;99752.16;5089790;28;20330;-36
2023/05/31 03:55:10;;;;;;;;;;;;;;;21.92;67.68;99756.59;5089885;28;20356;-34
2023/05/31 03:57:35;;;;;;;;;;;;;;;21.84;65.51;99745.22;5089822;28;19919;-34
2023/05/31 04:00:01;;;;;;;;;;;;;;;21.57;66.43;99747.50;5089536;28;20308;-36
2023/05/31 04:02:26;;;;;;;;;;;;;;;21.87;65.16;99749.28;5089744;28;19912;-36
2023/05/31 04:04:52;;;;;;;;;;;;;;;22.12;64.66;99752.94;5090040;28;19912;-36
2023/05/31 04:07:17;;;;;;;;;;;;;;;22.18;64.66;99749.09;5089803;28;20009;-36
2023/05/31 04:09:42;;;;;;;;;;;;;;;22.37;63.99;99752.00;5090127;28;19939;-36
2023/05/31 04:12:08;;;;;;;;;;;;;;;22.57;63.10;99749.16;5090356;28;19977;-36
2023/05/31 04:14:33;;;;;;;;;;;;;;;22.11;64.37;99751.34;5084749;28;19912;-37
2023/05/31 04:16:58;;;;;;;;;;;;;;;22.44;63.53;99763.34;5090200;28;19988;-36
2023/05/31 04:19:24;;;;;;;;;;;;;;;22.54;63.10;99751.59;5089080;28;20327;-34
2023/05/31 04:21:49;;;;;;;;;;;;;;;22.74;62.62;99748.75;5089269;28;19973;-37
2023/05/31 04:24:15;;;;;;;;;;;;;;;22.90;62.05;99748.59;5090045;28;19924;-36
2023/05/31 04:26:40;;;;;;;;;;;;;;;22.95;61.49;99759.44;5091647;28;19934;-36
2023/05/31 04:29:05;;;;;;;;;;;;;;;23.04;60.81;99755.03;5093391;28;19924;-36
2023/05/31 04:31:31;;;;;;;;;;;;;;;23.14;60.30;99748.69;5093378;28;20307;-36
2023/05/31 04:33:57;;;;;;;;;;;;;;;22.95;60.62;99754.78;5093442;28;19922;-36
2023/05/31 04:36:25;;;;;;;;;;;;;;;23.04;59.96;99755.03;5093391;28;20304;-35
2023/05/31 04:38:51;;;;;;;;;;;;;;;23.19;59.99;99762.22;5093113;28;20356;-36
2023/05/31 04:41:16;;;;;;;;;;;;;;;23.28;60.15;99765.91;5093430;28;19912;-36
2023/05/31 04:43:42;;;;;;;;;;;;;;;23.42;60.08;99771.47;5093144;28;19920;-36
2023/05/31 04:46:09;;;;;;;;;;;;;;;23.56;59.46;99766.16;5092936;28;19912;-37
2023/05/31 04:48:36;;;;;;;;;;;;;;;23.61;59.38;99774.25;5092166;28;19912;-36
2023/05/31 04:51:01;;;;;;;;;;;;;;;23.57;59.28;99765.88;5092606;28;19965;-37
2023/05/31 04:53:27;;;;;;;;;;;;;;;23.78;58.16;99771.06;5091978;28;19916;-36
2023/05/31 04:55:52;;;;;;;;;;;;;;;23.83;58.06;99786.53;5091199;28;19916;-37
2023/05/31 04:58:19;;;;;;;;;;;;;;;23.87;58.18;99788.34;5090638;28;19935;-36
2023/05/31 05:00:45;;;;;;;;;;;;;;;24.01;58.08;99788.47;5091386;28;19990;-36
2023/05/31 05:03:11;;;;;;;;;;;;;;;24.16;57.49;99790.16;5090809;28;20237;-36
2023/05/31 05:05:36;;;;;;;;;;;;;;;24.10;57.82;99796.75;5092260;28;19919;-35
2023/05/31 05:08:02;;;;;;;;;;;;;;;24.24;57.41;99803.09;5092041;28;20288;-37
2023/05/31 05:10:27;;;;;;;;;;;;;;;24.30;56.90;99793.78;5092072;28;19916;-35
2023/05/31 05:12:52;;;;;;;;;;;;;;;24.42;56.85;99796.03;5092810;28;19935;-36
2023/05/31 05:15:18;;;;;;;;;;;;;;;24.46;56.42;99804.44;5092831;28;20271;-37
2023/05/31 05:17:44;;;;;;;;;;;;;;;24.45;56.98;99806.34;5090196;28;19920;-35
2023/05/31 05:20:10;;;;;;;;;;;;;;;24.62;56.48;99808.59;5079158;28;19955;-37
2023/05/31 05:22:35;;;;;;;;;;;;;;;24.74;55.66;99806.19;5072021;28;19959;-37
2023/05/31 05:25:01;;;;;;;;;;;;;;;24.83;55.20;99810.97;5072172;28;19999;-36
2023/05/31 05:27:26;;;;;;;;;;;;;;;24.96;55.05;99816.47;5072048;28;20386;-37
2023/05/31 05:29:52;;;;;;;;;;;;;;;25.03;54.79;99818.00;5071692;28;19925;-36
2023/05/31 05:32:17;;;;;;;;;;;;;;;25.02;54.69;99819.91;5071715;28;20249;-37
2023/05/31 05:34:42;;;;;;;;;;;;;;;25.06;54.48;99823.66;5072132;28;19917;-39
2023/05/31 05:37:08;;;;;;;;;;;;;;;25.22;54.03;99828.84;5071516;28;19913;-37
2023/05/31 05:39:33;;;;;;;;;;;;;;;25.26;53.90;99824.44;5070187;28;19950;-37
2023/05/31 05:41:58;;;;;;;;;;;;;;;25.20;53.96;99829.13;5071702;28;19939;-36
2023/05/31 05:44:23;;;;;;;;;;;;;;;25.37;53.83;99831.31;5071496;28;20312;-37
2023/05/31 05:46:49;;;;;;;;;;;;;;;25.57;53.53;99832.88;5071390;28;19917;-37
2023/05/31 05:49:14;;;;;;;;;;;;;;;25.70;52.82;99840.25;5071190;28;20301;-36
2023/05/31 05:51:40;;;;;;;;;;;;;;;25.79;52.31;99832.16;5071454;28;19912;-37
2023/05/31 05:54:05;;;;;;;;;;;;;;;25.61;52.27;99833.88;5071554;28;19913;-37
2023/05/31 05:56:31;;;;;;;;;;;;;;;25.45;52.77;99841.50;5071664;28;19912;-36
2023/05/31 05:58:56;;;;;;;;;;;;;;;25.75;52.01;99842.06;5088971;28;19916;-39
2023/05/31 06:01:23;;;;;;;;;;;;;;;26.00;51.58;99842.69;5092013;28;19955;-36
2023/05/31 06:03:49;;;;;;;;;;;;;;;26.20;51.16;99849.63;5091852;28;19916;-37
2023/05/31 06:06:16;;;;;;;;;;;;;;;26.38;51.23;99850.63;5091580;28;19969;-37
2023/05/31 06:08:42;;;;;;;;;;;;;;;25.40;51.70;99847.06;5091690;28;19916;-37
2023/05/31 06:11:07;;;;;;;;;;;;;;;26.06;51.01;99849.66;5091555;28;19984;-37
2023/05/31 06:13:32;;;;;;;;;;;;;;;26.11;50.57;99853.06;5091423;28;19958;-37
2023/05/31 06:15:58;;;;;;;;;;;;;;;26.48;50.03;99848.47;5091353;28;19912;-36
2023/05/31 06:18:23;;;;;;;;;;;;;;;26.77;49.78;99852.75;5090989;28;20422;-38
2023/05/31 06:20:48;;;;;;;;;;;;;;;27.04;48.72;99849.09;5091349;28;19919;-37
2023/05/31 06:23:13;;;;;;;;;;;;;;;26.99;48.22;99854.69;5091489;28;19916;-38
2023/05/31 06:25:39;;;;;;;;;;;;;;;27.00;47.37;99845.38;5091517;28;19928;-37
2023/05/31 06:28:04;;;;;;;;;;;;;;;26.96;47.89;99843.56;5091386;28;20337;-36
2023/05/31 06:30:29;;;;;;;;;;;;;;;26.92;48.12;99838.75;5090789;28;19934;-36
2023/05/31 06:32:55;;;;;;;;;;;;;;;26.79;48.53;99845.06;5090904;28;20277;-36
2023/05/31 06:35:22;;;;;;;;;;;;;;;26.82;48.58;99838.19;5090904;28;19934;-37
2023/05/31 06:37:48;;;;;;;;;;;;;;;27.38;47.46;99841.44;5090636;28;20338;-36
2023/05/31 06:40:13;;;;;;;;;;;;;;;27.05;48.25;99839.78;5090828;28;20014;-37
2023/05/31 06:42:38;;;;;;;;;;;;;;;27.18;47.15;99842.75;5090700;28;19916;-37
2023/05/31 06:45:04;;;;;;;;;;;;;;;27.20;46.71;99845.97;5090919;28;20585;-37
2023/05/31 06:47:30;;;;;;;;;;;;;;;26.83;47.13;99842.53;5090698;28;20396;-36
2023/05/31 06:49:55;;;;;;;;;;;;;;;26.47;47.79;99844.13;5090537;28;19939;-37
2023/05/31 06:52:20;;;;;;;;;;;;;;;27.22;46.54;99839.06;5091206;28;19912;-37
2023/05/31 06:54:46;;;;;;;;;;;;;;;27.76;45.54;99849.16;5090393;28;19920;-38
2023/05/31 06:57:11;;;;;;;;;;;;;;;27.78;45.04;99846.91;5090353;28;19931;-36
2023/05/31 06:59:37;;;;;;;;;;;;;;;27.55;45.02;99844.28;5090543;28;19923;-38
2023/05/31 07:02:02;;;;;;;;;;;;;;;27.44;45.17;99843.75;5090501;28;19912;-37
2023/05/31 07:04:27;;;;;;;;;;;;;;;27.93;44.61;99845.72;5090512;28;20017;-37
2023/05/31 07:06:52;;;;;;;;;;;;;;;27.81;44.32;99840.84;5090845;28;20010;-36
2023/05/31 07:09:18;;;;;;;;;;;;;;;28.12;44.23;99843.53;5090196;28;19998;-37
2023/05/31 07:11:43;;;;;;;;;;;;;;;28.68;43.02;99841.03;5090488;28;20276;-38
2023/05/31 07:14:09;;;;;;;;;;;;;;;29.10;42.53;99835.84;5090475;28;19935;-37
2023/05/31 07:16:34;;;;;;;;;;;;;;;29.12;42.50;99839.06;5090263;28;19916;-37
2023/05/31 07:19:00;;;;;;;;;;;;;;;29.42;42.32;99836.44;5090504;28;19916;-36
2023/05/31 07:21:25;;;;;;;;;;;;;;;29.69;41.66;99837.13;5090466;28;19912;-36
2023/05/31 07:23:51;;;;;;;;;;;;;;;29.55;41.92;99832.69;5090476;28;19912;-37
2023/05/31 07:26:17;;;;;;;;;;;;;;;30.01;41.28;99841.19;5090432;28;19923;-37
2023/05/31 07:28:43;;;;;;;;;;;;;;;30.25;40.77;99834.25;5090454;28;19956;-37
2023/05/31 07:31:08;;;;;;;;;;;;;;;30.42;40.38;99842.41;5090509;28;20303;-37
2023/05/31 07:33:33;;;;;;;;;;;;;;;30.53;40.20;99842.81;5090404;28;19933;-36
2023/05/31 07:36:02;;;;;;;;;;;;;;;30.54;39.22;99839.72;5090399;28;19912;-37
2023/05/31 07:38:27;;;;;;;;;;;;;;;30.78;39.17;99836.28;5090816;28;19923;-35
2023/05/31 07:40:53;;;;;;;;;;;;;;;30.91;39.29;99836.38;5090008;28;19915;-36
2023/05/31 07:43:21;;;;;;;;;;;;;;;30.89;39.09;99835.88;5090158;28;19927;-37
2023/05/31 07:45:49;;;;;;;;;;;;;;;30.65;39.44;99840.09;5090160;28;20332;-37
2023/05/31 07:48:16;;;;;;;;;;;;;;;31.09;39.28;99834.25;5089988;28;20299;-36
2023/05/31 07:50:42;;;;;;;;;;;;;;;31.11;37.54;99829.19;5090033;28;19917;-35
2023/05/31 07:53:07;;;;;;;;;;;;;;;31.18;38.15;99832.22;5090419;28;19916;-36
2023/05/31 07:55:32;;;;;;;;;;;;;;;31.26;38.18;99836.00;5090028;28;20311;-36
2023/05/31 07:57:57;;;;;;;;;;;;;;;30.68;38.83;99841.41;5089881;28;20011;-37
2023/05/31 08:00:23;;;;;;;;;;;;;;;30.78;38.30;99840.97;5090146;28;19912;-36
2023/05/31 08:02:48;;;;;;;;;;;;;;;30.22;39.19;99838.47;5093736;28;19971;-38
2023/05/31 08:05:14;;;;;;;;;;;;;;;30.89;38.77;99839.41;5093829;28;19912;-37
2023/05/31 08:07:39;;;;;;;;;;;;;;;31.47;38.29;99836.78;5093560;28;19927;-36
2023/05/31 08:10:05;;;;;;;;;;;;;;;30.80;38.84;99841.44;5093766;28;19911;-37
2023/05/31 08:12:30;;;;;;;;;;;;;;;30.68;39.85;99844.16;5093763;28;19912;-37
2023/05/31 08:14:56;;;;;;;;;;;;;;;30.60;39.48;99835.63;5093463;28;19912;-37
2023/05/31 08:17:21;;;;;;;;;;;;;;;30.99;38.68;99830.78;5093592;28;20399;-36
2023/05/31 08:19:46;;;;;;;;;;;;;;;31.47;37.83;99828.53;5094019;28;19916;-36
2023/05/31 08:22:12;;;;;;;;;;;;;;;31.93;36.80;99829.22;5093572;28;19912;-38
2023/05/31 08:24:37;;;;;;;;;;;;;;;32.19;37.10;99828.03;5093650;28;19919;-37
2023/05/31 08:27:02;;;;;;;;;;;;;;;32.84;35.97;99824.41;5093531;28;19912;-38
2023/05/31 08:29:28;;;;;;;;;;;;;;;32.86;35.22;99830.38;5093279;28;19928;-38
2023/05/31 08:31:53;;;;;;;;;;;;;;;32.32;35.70;99828.81;5093739;28;19916;-37
2023/05/31 08:34:19;;;;;;;;;;;;;;;33.16;34.29;99821.75;5093335;28;20292;-37
2023/05/31 08:36:44;;;;;;;;;;;;;;;33.22;35.17;99817.59;5093130;28;19913;-37
2023/05/31 08:39:10;;;;;;;;;;;;;;;32.79;35.08;99817.22;5093296;28;19924;-36
2023/05/31 08:42:01;;;;;;;;;;;;;;;33.41;33.21;99814.91;5093085;28;19912;-35
2023/05/31 08:44:28;;;;;;;;;;;;;;;33.64;33.49;99819.84;5076684;28;19916;-37
2023/05/31 08:46:57;;;;;;;;;;;;;;;34.19;32.89;99817.19;5092942;28;20339;-36
2023/05/31 08:49:22;;;;;;;;;;;;;;;34.38;32.17;99806.13;5092838;28;19920;-37
2023/05/31 08:51:48;;;;;;;;;;;;;;;34.64;32.19;99810.22;5092921;28;20055;-37
2023/05/31 08:54:14;;;;;;;;;;;;;;;35.10;31.70;99804.78;5092703;28;19912;-37
2023/05/31 08:56:40;;;;;;;;;;;;;;;34.60;32.16;99798.31;5092543;28;19924;-37
2023/05/31 08:59:08;;;;;;;;;;;;;;;34.72;31.07;99786.31;5093246;28;19920;-36
2023/05/31 09:01:35;;;;;;;;;;;;;;;34.37;31.63;99796.28;5092657;28;19912;-38
2023/05/31 09:04:01;;;;;;;;;;;;;;;35.23;31.38;99764.75;5092223;28;20288;-37
2023/05/31 09:06:26;;;;;;;;;;;;;;;35.61;30.34;99787.09;5092876;28;19919;-36
2023/05/31 09:08:51;;;;;;;;;;;;;;;35.80;28.99;99775.16;5092693;28;19931;-36
2023/05/31 09:11:17;;;;;;;;;;;;;;;34.65;31.20;99776.72;5092657;28;20003;-36
2023/05/31 09:13:42;;;;;;;;;;;;;;;35.41;30.10;99775.31;5092836;28;19919;-37
2023/05/31 09:16:07;;;;;;;;;;;;;;;35.12;29.86;99768.47;5092421;28;19919;-38
2023/05/31 09:18:36;;;;;;;;;;;;;;;34.56;31.03;99769.81;5092155;28;19916;-37
2023/05/31 09:21:07;;;;;;;;;;;;;;;33.73;32.44;99772.75;5092302;28;19912;-35
2023/05/31 09:23:32;;;;;;;;;;;;;;;34.07;31.42;99771.16;5092199;28;19916;-36
2023/05/31 09:25:57;;;;;;;;;;;;;;;34.72;32.21;99761.47;5092252;28;19985;-36
2023/05/31 09:28:23;;;;;;;;;;;;;;;34.92;31.85;99760.25;5092505;28;19963;-37
2023/05/31 09:31:03;;;;;;;;;;;;;;;35.41;31.30;99754.00;5092026;28;19928;-36
2023/05/31 09:33:38;;;;;;;;;;;;;;;35.97;29.75;99751.66;5092122;28;19962;-38
2023/05/31 09:36:04;;;;;;;;;;;;;;;36.51;29.46;99747.56;5092137;28;19912;-37
2023/05/31 09:38:33;;;;;;;;;;;;;;;35.03;30.27;99746.59;5092145;28;20042;-37
2023/05/31 09:41:14;;;;;;;;;;;;;;;34.52;30.36;99746.81;5092102;28;19955;-36
2023/05/31 09:43:44;;;;;;;;;;;;;;;34.56;30.88;99748.50;5091630;28;19919;-37
2023/05/31 09:46:13;;;;;;;;;;;;;;;34.74;30.46;99750.84;5091902;28;19912;-36
2023/05/31 09:48:38;;;;;;;;;;;;;;;34.18;31.15;99744.59;5092131;28;19918;-36
2023/05/31 09:51:08;;;;;;;;;;;;;;;34.69;30.90;99734.53;5091579;28;20010;-37
2023/05/31 09:53:40;;;;;;;;;;;;;;;34.56;30.43;99731.16;5091694;28;19919;-36
2023/05/31 09:56:10;;;;;;;;;;;;;;;33.68;31.30;99724.97;5091802;28;19912;-36
2023/05/31 09:58:36;;;;;;;;;;;;;;;34.05;32.81;99727.34;5091715;28;20521;-37
2023/05/31 10:01:01;;;;;;;;;;;;;;;34.31;29.75;99725.13;5091460;28;19919;-37
2023/05/31 10:03:28;;;;;;;;;;;;;;;33.42;31.53;99730.25;5091955;28;19912;-36
2023/05/31 10:05:53;;;;;;;;;;;;;;;33.60;31.90;99730.66;5091342;28;20078;-36
2023/05/31 10:08:19;;;;;;;;;;;;;;;34.28;30.93;99730.19;5091645;28;20385;-36
2023/05/31 10:10:44;;;;;;;;;;;;;;;34.03;30.15;99734.41;5091307;28;19970;-38
2023/05/31 10:13:11;;;;;;;;;;;;;;;33.07;32.00;99731.75;5091205;28;20350;-36
2023/05/31 10:15:37;;;;;;;;;;;;;;;32.73;31.63;99714.75;5091423;28;19912;-36
2023/05/31 10:18:07;;;;;;;;;;;;;;;33.48;31.86;99731.56;5090973;28;20360;-38
2023/05/31 10:20:36;;;;;;;;;;;;;;;31.53;33.43;99719.91;5092017;28;19920;-38
2023/05/31 10:23:05;;;;;;;;;;;;;;;31.63;33.80;99723.34;5091084;28;19913;-37
2023/05/31 10:25:38;;;;;;;;;;;;;;;31.18;34.05;99714.84;5090582;28;20332;-37
2023/05/31 10:28:07;;;;;;;;;;;;;;;30.04;35.32;99711.59;5091042;28;19912;-37
2023/05/31 10:30:34;;;;;;;;;;;;;;;30.79;35.23;99711.56;5090987;28;20004;-37
2023/05/31 10:33:13;;;;;;;;;;;;;;;30.89;33.53;99701.28;5090792;28;19968;-37
2023/05/31 10:35:39;;;;;;;;;;;;;;;31.36;33.78;99701.69;5091391;28;19981;-37
2023/05/31 10:38:05;;;;;;;;;;;;;;;31.37;32.76;99706.00;5090650;28;20324;-37
2023/05/31 10:40:45;;;;;;;;;;;;;;;31.12;34.05;99696.97;5091175;28;20341;-38
2023/05/31 10:43:22;;;;;;;;;;;;;;;30.49;33.87;99697.16;5090820;28;19923;-35
2023/05/31 10:45:53;;;;;;;;;;;;;;;29.86;36.47;99699.94;5090910;28;20454;-37
2023/05/31 10:48:26;;;;;;;;;;;;;;;30.20;36.52;99679.66;5090921;28;19912;-38
2023/05/31 10:50:58;;;;;;;;;;;;;;;31.82;34.93;99673.22;5090867;28;19912;-37
2023/05/31 10:53:39;;;;;;;;;;;;;;;31.76;31.59;99683.69;5090774;28;19916;-36
2023/05/31 10:56:06;;;;;;;;;;;;;;;31.16;30.52;99667.66;5090923;28;20277;-36
2023/05/31 10:58:36;;;;;;;;;;;;;;;30.49;31.87;99663.44;5090676;28;21244;-36
2023/05/31 11:01:06;;;;;;;;;;;;;;;29.88;32.67;99664.75;5091413;28;19919;-36
2023/05/31 11:03:33;;;;;;;;;;;;;;;30.10;32.25;99652.66;5091270;28;19912;-37
2023/05/31 11:05:59;;;;;;;;;;;;;;;30.85;31.03;99653.66;5090827;28;19912;-37
2023/05/31 11:08:25;;;;;;;;;;;;;;;31.14;32.47;99656.22;5090895;28;19912;-36
2023/05/31 11:10:51;;;;;;;;;;;;;;;30.48;32.36;99643.44;5091021;28;20030;-37
2023/05/31 11:13:16;;;;;;;;;;;;;;;30.06;32.47;99653.66;5090632;28;19970;-36
2023/05/31 11:15:43;;;;;;;;;;;;;;;29.77;33.30;99655.34;5090750;28;20052;-35
2023/05/31 11:18:09;;;;;;;;;;;;;;;30.37;33.79;99645.78;5090359;28;20017;-36
2023/05/31 11:20:35;;;;;;;;;;;;;;;30.45;34.11;99648.78;5090461;28;20420;-36
2023/05/31 11:23:16;;;;;;;;;;;;;;;30.34;34.65;99646.47;5090341;28;19916;-36
2023/05/31 11:25:41;;;;;;;;;;;;;;;30.25;32.19;99639.44;5090384;28;19936;-37
2023/05/31 11:28:07;;;;;;;;;;;;;;;29.82;33.31;99652.41;5090393;28;19923;-37
2023/05/31 11:30:35;;;;;;;;;;;;;;;29.53;33.08;99644.97;5090088;28;19928;-37
2023/05/31 11:33:01;;;;;;;;;;;;;;;29.35;33.70;99636.88;5090149;28;19992;-38
2023/05/31 11:35:30;;;;;;;;;;;;;;;29.81;34.39;99629.63;5090844;28;19969;-37
2023/05/31 11:38:00;;;;;;;;;;;;;;;29.73;34.20;99622.28;5094433;28;19912;-36
2023/05/31 11:40:26;;;;;;;;;;;;;;;30.52;34.37;99629.81;5093626;28;20306;-37
2023/05/31 11:42:53;;;;;;;;;;;;;;;30.04;33.82;99629.28;5094802;28;19934;-37
2023/05/31 11:45:22;;;;;;;;;;;;;;;30.39;33.17;99626.25;5094597;28;19934;-37
2023/05/31 11:47:47;;;;;;;;;;;;;;;30.46;32.36;99614.69;5094618;28;19916;-36
2023/05/31 11:50:19;;;;;;;;;;;;;;;30.24;33.37;99611.19;5094729;28;19962;-37
2023/05/31 11:52:45;;;;;;;;;;;;;;;30.63;33.27;99625.47;5094522;28;19912;-36
2023/05/31 11:55:11;;;;;;;;;;;;;;;30.11;32.63;99626.81;5094254;28;20256;-37
2023/05/31 11:57:46;;;;;;;;;;;;;;;30.83;31.77;99621.06;5094100;28;19916;-36
2023/05/31 12:00:15;;;;;;;;;;;;;;;31.18;31.05;99613.16;5094116;28;19916;-36
2023/05/31 12:02:43;;;;;;;;;;;;;;;31.50;30.94;99620.81;5094411;28;20002;-37
2023/05/31 12:05:12;;;;;;;;;;;;;;;31.89;30.05;99612.91;5094139;28;19919;-36
2023/05/31 12:07:37;;;;;;;;;;;;;;;31.51;30.33;99612.22;5094454;28;19912;-37
2023/05/31 12:10:06;;;;;;;;;;;;;;;30.38;30.70;99614.44;5094430;28;19936;-35
2023/05/31 12:12:32;;;;;;;;;;;;;;;30.52;31.24;99616.06;5094153;28;19972;-37
2023/05/31 12:14:57;;;;;;;;;;;;;;;30.43;31.13;99621.69;5094180;28;20062;-37
2023/05/31 12:17:22;;;;;;;;;;;;;;;30.33;30.72;99609.19;5093793;28;19981;-35
2023/05/31 12:19:48;;;;;;;;;;;;;;;30.77;30.94;99608.69;5093924;28;19916;-36
2023/05/31 12:22:13;;;;;;;;;;;;;;;30.51;30.70;99606.25;5093735;28;20415;-37
2023/05/31 12:24:47;;;;;;;;;;;;;;;30.23;30.19;99593.09;5093479;28;19912;-36
2023/05/31 12:27:13;;;;;;;;;;;;;;;29.87;31.44;99600.06;5094166;28;19993;-36
2023/05/31 12:29:39;;;;;;;;;;;;;;;30.29;29.71;99594.53;5093140;28;20265;-36
2023/05/31 12:32:05;;;;;;;;;;;;;;;29.89;31.93;99603.31;5092443;28;19927;-37
2023/05/31 12:34:32;;;;;;;;;;;;;;;30.76;30.94;99590.59;5092542;28;19951;-36
2023/05/31 12:37:02;;;;;;;;;;;;;;;29.70;32.41;99602.94;5092391;28;19916;-36
2023/05/31 12:39:28;;;;;;;;;;;;;;;29.74;32.24;99591.00;5092200;28;20359;-35
2023/05/31 12:41:53;;;;;;;;;;;;;;;29.77;31.04;99593.06;5092179;28;19974;-37
2023/05/31 12:44:20;;;;;;;;;;;;;;;29.55;31.44;99583.22;5092183;28;19916;-37